sensor_id;sensor_type;location;lat;lon;timestamp;P1;durP1;ratioP1;P2;durP2;ratioP2
66402;SDS011;53212;52.112;5.144;2024-02-16T00:01:58;4.10;;;2.40;;
66402;SDS011;53212;52.112;5.144;2024-02-16T00:04:24;4.10;;;2.40;;
66402;SDS011;53212;52.112;5.144;2024-02-16T00:06:50;3.50;;;2.70;;
66402;SDS011;53212;52.112;5.144;2024-02-16T00:09:16;3.20;;;2.60;;
66402;SDS011;53212;52.112;5.144;2024-02-16T00:11:42;5.50;;;2.40;;
66402;SDS011;53212;52.112;5.144;2024-02-16T00:14:09;3.40;;;2.60;;
66402;SDS011;53212;52.112;5.144;2024-02-16T00:16:34;3.80;;;2.60;;
66402;SDS011;53212;52.112;5.144;2024-02-16T00:19:00;5.70;;;2.40;;
66402;SDS011;53212;52.112;5.144;2024-02-16T00:21:25;4.20;;;2.70;;
66402;SDS011;53212;52.112;5.144;2024-02-16T00:23:51;2.50;;;2.30;;
66402;SDS011;53212;52.112;5.144;2024-02-16T00:26:16;4.10;;;2.80;;
66402;SDS011;53212;52.112;5.144;2024-02-16T00:28:41;4.40;;;2.60;;
66402;SDS011;53212;52.112;5.144;2024-02-16T00:31:07;3.90;;;3.10;;
66402;SDS011;53212;52.112;5.144;2024-02-16T00:33:33;5.30;;;2.40;;
66402;SDS011;53212;52.112;5.144;2024-02-16T00:35:58;4.50;;;2.80;;
66402;SDS011;53212;52.112;5.144;2024-02-16T00:38:24;3.50;;;2.90;;
66402;SDS011;53212;52.112;5.144;2024-02-16T00:40:49;5.40;;;2.50;;
66402;SDS011;53212;52.112;5.144;2024-02-16T00:43:15;3.10;;;2.80;;
66402;SDS011;53212;52.112;5.144;2024-02-16T00:45:42;4.50;;;2.70;;
66402;SDS011;53212;52.112;5.144;2024-02-16T00:48:10;3.60;;;2.60;;
66402;SDS011;53212;52.112;5.144;2024-02-16T00:50:35;3.00;;;2.60;;
66402;SDS011;53212;52.112;5.144;2024-02-16T00:53:02;5.10;;;3.40;;
66402;SDS011;53212;52.112;5.144;2024-02-16T00:55:27;4.80;;;2.80;;
66402;SDS011;53212;52.112;5.144;2024-02-16T00:57:53;3.80;;;2.80;;
66402;SDS011;53212;52.112;5.144;2024-02-16T01:00:18;3.70;;;2.60;;
66402;SDS011;53212;52.112;5.144;2024-02-16T01:02:49;4.00;;;2.90;;
66402;SDS011;53212;52.112;5.144;2024-02-16T01:05:17;5.30;;;3.20;;
66402;SDS011;53212;52.112;5.144;2024-02-16T01:07:44;7.10;;;2.90;;
66402;SDS011;53212;52.112;5.144;2024-02-16T01:10:10;4.70;;;2.90;;
66402;SDS011;53212;52.112;5.144;2024-02-16T01:12:37;5.80;;;3.50;;
66402;SDS011;53212;52.112;5.144;2024-02-16T01:15:04;5.30;;;3.10;;
66402;SDS011;53212;52.112;5.144;2024-02-16T01:17:30;5.70;;;2.80;;
66402;SDS011;53212;52.112;5.144;2024-02-16T01:19:58;3.50;;;2.90;;
66402;SDS011;53212;52.112;5.144;2024-02-16T01:22:27;3.60;;;3.00;;
66402;SDS011;53212;52.112;5.144;2024-02-16T01:24:54;3.80;;;2.80;;
66402;SDS011;53212;52.112;5.144;2024-02-16T01:27:20;3.20;;;2.90;;
66402;SDS011;53212;52.112;5.144;2024-02-16T01:29:46;6.00;;;3.00;;
66402;SDS011;53212;52.112;5.144;2024-02-16T01:32:12;5.20;;;2.80;;
66402;SDS011;53212;52.112;5.144;2024-02-16T01:34:39;3.40;;;2.90;;
66402;SDS011;53212;52.112;5.144;2024-02-16T01:37:04;4.60;;;2.80;;
66402;SDS011;53212;52.112;5.144;2024-02-16T01:39:30;5.40;;;2.90;;
66402;SDS011;53212;52.112;5.144;2024-02-16T01:41:55;5.80;;;3.10;;
66402;SDS011;53212;52.112;5.144;2024-02-16T01:44:21;5.20;;;3.10;;
66402;SDS011;53212;52.112;5.144;2024-02-16T01:46:46;5.10;;;2.70;;
66402;SDS011;53212;52.112;5.144;2024-02-16T01:49:12;3.70;;;2.70;;
66402;SDS011;53212;52.112;5.144;2024-02-16T01:51:39;5.50;;;3.30;;
66402;SDS011;53212;52.112;5.144;2024-02-16T01:54:05;4.50;;;2.90;;
66402;SDS011;53212;52.112;5.144;2024-02-16T01:56:31;5.90;;;3.10;;
66402;SDS011;53212;52.112;5.144;2024-02-16T01:58:56;4.00;;;2.70;;
66402;SDS011;53212;52.112;5.144;2024-02-16T02:01:22;5.50;;;3.00;;
66402;SDS011;53212;52.112;5.144;2024-02-16T02:03:47;4.30;;;3.20;;
66402;SDS011;53212;52.112;5.144;2024-02-16T02:06:13;5.00;;;2.90;;
66402;SDS011;53212;52.112;5.144;2024-02-16T02:08:39;3.90;;;3.10;;
66402;SDS011;53212;52.112;5.144;2024-02-16T02:11:04;5.10;;;3.20;;
66402;SDS011;53212;52.112;5.144;2024-02-16T02:13:31;2.80;;;2.40;;
66402;SDS011;53212;52.112;5.144;2024-02-16T02:15:57;3.30;;;3.00;;
66402;SDS011;53212;52.112;5.144;2024-02-16T02:18:23;4.30;;;3.30;;
66402;SDS011;53212;52.112;5.144;2024-02-16T02:20:50;4.00;;;3.00;;
66402;SDS011;53212;52.112;5.144;2024-02-16T02:23:15;3.50;;;2.90;;
66402;SDS011;53212;52.112;5.144;2024-02-16T02:25:41;6.30;;;2.80;;
66402;SDS011;53212;52.112;5.144;2024-02-16T02:28:06;4.30;;;2.90;;
66402;SDS011;53212;52.112;5.144;2024-02-16T02:30:32;4.50;;;3.40;;
66402;SDS011;53212;52.112;5.144;2024-02-16T02:32:57;3.50;;;3.00;;
66402;SDS011;53212;52.112;5.144;2024-02-16T02:35:23;7.30;;;3.10;;
66402;SDS011;53212;52.112;5.144;2024-02-16T02:37:48;3.10;;;2.60;;
66402;SDS011;53212;52.112;5.144;2024-02-16T02:40:14;3.50;;;2.70;;
66402;SDS011;53212;52.112;5.144;2024-02-16T02:42:39;3.30;;;3.00;;
66402;SDS011;53212;52.112;5.144;2024-02-16T02:45:05;3.60;;;2.90;;
66402;SDS011;53212;52.112;5.144;2024-02-16T02:47:31;4.90;;;3.00;;
66402;SDS011;53212;52.112;5.144;2024-02-16T02:49:57;3.60;;;3.00;;
66402;SDS011;53212;52.112;5.144;2024-02-16T02:52:23;3.70;;;2.70;;
66402;SDS011;53212;52.112;5.144;2024-02-16T02:54:48;3.40;;;2.90;;
66402;SDS011;53212;52.112;5.144;2024-02-16T02:57:14;3.60;;;2.90;;
66402;SDS011;53212;52.112;5.144;2024-02-16T02:59:39;4.00;;;3.10;;
66402;SDS011;53212;52.112;5.144;2024-02-16T03:02:04;3.70;;;2.90;;
66402;SDS011;53212;52.112;5.144;2024-02-16T03:04:30;4.10;;;3.00;;
66402;SDS011;53212;52.112;5.144;2024-02-16T03:06:56;3.40;;;2.80;;
66402;SDS011;53212;52.112;5.144;2024-02-16T03:09:21;3.50;;;2.70;;
66402;SDS011;53212;52.112;5.144;2024-02-16T03:11:48;4.00;;;3.20;;
66402;SDS011;53212;52.112;5.144;2024-02-16T03:14:18;5.10;;;2.80;;
66402;SDS011;53212;52.112;5.144;2024-02-16T03:16:43;3.80;;;2.80;;
66402;SDS011;53212;52.112;5.144;2024-02-16T03:19:09;5.00;;;2.70;;
66402;SDS011;53212;52.112;5.144;2024-02-16T03:21:35;5.20;;;3.00;;
66402;SDS011;53212;52.112;5.144;2024-02-16T03:24:01;3.00;;;2.80;;
66402;SDS011;53212;52.112;5.144;2024-02-16T03:26:29;5.20;;;2.80;;
66402;SDS011;53212;52.112;5.144;2024-02-16T03:28:54;3.40;;;3.00;;
66402;SDS011;53212;52.112;5.144;2024-02-16T03:31:22;3.50;;;2.80;;
66402;SDS011;53212;52.112;5.144;2024-02-16T03:33:49;5.40;;;2.80;;
66402;SDS011;53212;52.112;5.144;2024-02-16T03:36:19;4.20;;;2.60;;
66402;SDS011;53212;52.112;5.144;2024-02-16T03:38:46;4.50;;;2.90;;
66402;SDS011;53212;52.112;5.144;2024-02-16T03:41:21;4.00;;;2.90;;
66402;SDS011;53212;52.112;5.144;2024-02-16T03:43:48;5.50;;;3.00;;
66402;SDS011;53212;52.112;5.144;2024-02-16T03:46:15;3.40;;;2.90;;
66402;SDS011;53212;52.112;5.144;2024-02-16T03:48:41;3.90;;;2.80;;
66402;SDS011;53212;52.112;5.144;2024-02-16T03:51:07;3.80;;;2.80;;
66402;SDS011;53212;52.112;5.144;2024-02-16T03:53:33;3.80;;;2.50;;
66402;SDS011;53212;52.112;5.144;2024-02-16T03:55:59;3.20;;;2.90;;
66402;SDS011;53212;52.112;5.144;2024-02-16T03:58:25;3.20;;;2.80;;
66402;SDS011;53212;52.112;5.144;2024-02-16T04:00:50;2.60;;;2.30;;
66402;SDS011;53212;52.112;5.144;2024-02-16T04:03:18;3.90;;;2.80;;
66402;SDS011;53212;52.112;5.144;2024-02-16T04:05:44;3.30;;;2.70;;
66402;SDS011;53212;52.112;5.144;2024-02-16T04:08:10;5.80;;;2.90;;
66402;SDS011;53212;52.112;5.144;2024-02-16T04:10:35;6.50;;;2.80;;
66402;SDS011;53212;52.112;5.144;2024-02-16T04:13:02;4.70;;;2.50;;
66402;SDS011;53212;52.112;5.144;2024-02-16T04:15:28;4.10;;;3.00;;
66402;SDS011;53212;52.112;5.144;2024-02-16T04:17:54;3.20;;;2.50;;
66402;SDS011;53212;52.112;5.144;2024-02-16T04:20:19;4.20;;;2.70;;
66402;SDS011;53212;52.112;5.144;2024-02-16T04:22:45;4.10;;;2.50;;
66402;SDS011;53212;52.112;5.144;2024-02-16T04:25:11;3.00;;;2.70;;
66402;SDS011;53212;52.112;5.144;2024-02-16T04:27:37;3.30;;;2.70;;
66402;SDS011;53212;52.112;5.144;2024-02-16T04:30:03;3.40;;;2.60;;
66402;SDS011;53212;52.112;5.144;2024-02-16T04:32:30;5.00;;;2.90;;
66402;SDS011;53212;52.112;5.144;2024-02-16T04:34:56;4.60;;;3.20;;
66402;SDS011;53212;52.112;5.144;2024-02-16T04:37:22;4.30;;;2.90;;
66402;SDS011;53212;52.112;5.144;2024-02-16T04:39:49;3.30;;;2.80;;
66402;SDS011;53212;52.112;5.144;2024-02-16T04:42:15;4.30;;;3.00;;
66402;SDS011;53212;52.112;5.144;2024-02-16T04:44:41;3.30;;;2.90;;
66402;SDS011;53212;52.112;5.144;2024-02-16T04:47:06;3.50;;;2.90;;
66402;SDS011;53212;52.112;5.144;2024-02-16T04:49:32;4.20;;;2.90;;
66402;SDS011;53212;52.112;5.144;2024-02-16T04:51:58;3.20;;;2.90;;
66402;SDS011;53212;52.112;5.144;2024-02-16T04:54:23;3.70;;;2.80;;
66402;SDS011;53212;52.112;5.144;2024-02-16T04:56:50;3.60;;;2.40;;
66402;SDS011;53212;52.112;5.144;2024-02-16T04:59:16;6.10;;;2.70;;
66402;SDS011;53212;52.112;5.144;2024-02-16T05:01:43;2.70;;;2.50;;
66402;SDS011;53212;52.112;5.144;2024-02-16T05:04:12;3.30;;;2.50;;
66402;SDS011;53212;52.112;5.144;2024-02-16T05:06:42;3.80;;;2.90;;
66402;SDS011;53212;52.112;5.144;2024-02-16T05:09:10;4.90;;;3.00;;
66402;SDS011;53212;52.112;5.144;2024-02-16T05:11:36;2.90;;;2.70;;
66402;SDS011;53212;52.112;5.144;2024-02-16T05:14:01;4.90;;;2.70;;
66402;SDS011;53212;52.112;5.144;2024-02-16T05:16:27;6.00;;;3.30;;
66402;SDS011;53212;52.112;5.144;2024-02-16T05:18:57;4.50;;;2.90;;
66402;SDS011;53212;52.112;5.144;2024-02-16T05:21:23;3.70;;;3.10;;
66402;SDS011;53212;52.112;5.144;2024-02-16T05:23:48;5.50;;;2.80;;
66402;SDS011;53212;52.112;5.144;2024-02-16T05:26:13;3.70;;;2.90;;
66402;SDS011;53212;52.112;5.144;2024-02-16T05:28:39;4.80;;;3.00;;
66402;SDS011;53212;52.112;5.144;2024-02-16T05:31:16;4.70;;;3.20;;
66402;SDS011;53212;52.112;5.144;2024-02-16T05:33:44;5.50;;;3.00;;
66402;SDS011;53212;52.112;5.144;2024-02-16T05:36:12;4.20;;;2.90;;
66402;SDS011;53212;52.112;5.144;2024-02-16T05:38:38;5.90;;;3.30;;
66402;SDS011;53212;52.112;5.144;2024-02-16T05:41:08;3.70;;;2.70;;
66402;SDS011;53212;52.112;5.144;2024-02-16T05:43:34;4.80;;;2.80;;
66402;SDS011;53212;52.112;5.144;2024-02-16T05:46:00;4.90;;;2.90;;
66402;SDS011;53212;52.112;5.144;2024-02-16T05:48:26;3.10;;;2.80;;
66402;SDS011;53212;52.112;5.144;2024-02-16T05:50:57;3.70;;;3.00;;
66402;SDS011;53212;52.112;5.144;2024-02-16T05:53:26;6.60;;;3.20;;
66402;SDS011;53212;52.112;5.144;2024-02-16T05:55:55;3.50;;;3.00;;
66402;SDS011;53212;52.112;5.144;2024-02-16T05:58:21;5.00;;;2.80;;
66402;SDS011;53212;52.112;5.144;2024-02-16T06:00:48;4.30;;;2.90;;
66402;SDS011;53212;52.112;5.144;2024-02-16T06:03:14;4.50;;;3.10;;
66402;SDS011;53212;52.112;5.144;2024-02-16T06:05:39;5.60;;;3.10;;
66402;SDS011;53212;52.112;5.144;2024-02-16T06:08:06;4.00;;;2.80;;
66402;SDS011;53212;52.112;5.144;2024-02-16T06:10:33;4.10;;;3.50;;
66402;SDS011;53212;52.112;5.144;2024-02-16T06:12:59;3.50;;;2.60;;
66402;SDS011;53212;52.112;5.144;2024-02-16T06:15:24;3.30;;;2.90;;
66402;SDS011;53212;52.112;5.144;2024-02-16T06:17:50;3.80;;;3.10;;
66402;SDS011;53212;52.112;5.144;2024-02-16T06:20:16;3.30;;;3.00;;
66402;SDS011;53212;52.112;5.144;2024-02-16T06:22:42;3.10;;;2.80;;
66402;SDS011;53212;52.112;5.144;2024-02-16T06:25:08;3.20;;;2.90;;
66402;SDS011;53212;52.112;5.144;2024-02-16T06:27:34;3.70;;;3.20;;
66402;SDS011;53212;52.112;5.144;2024-02-16T06:30:02;4.00;;;2.90;;
66402;SDS011;53212;52.112;5.144;2024-02-16T06:32:32;3.80;;;3.40;;
66402;SDS011;53212;52.112;5.144;2024-02-16T06:34:58;3.70;;;3.30;;
66402;SDS011;53212;52.112;5.144;2024-02-16T06:37:24;4.70;;;3.10;;
66402;SDS011;53212;52.112;5.144;2024-02-16T06:39:50;3.60;;;2.90;;
66402;SDS011;53212;52.112;5.144;2024-02-16T06:42:15;6.20;;;2.80;;
66402;SDS011;53212;52.112;5.144;2024-02-16T06:44:41;4.30;;;2.90;;
66402;SDS011;53212;52.112;5.144;2024-02-16T06:47:06;5.80;;;2.60;;
66402;SDS011;53212;52.112;5.144;2024-02-16T06:49:32;5.10;;;3.10;;
66402;SDS011;53212;52.112;5.144;2024-02-16T06:51:57;4.70;;;3.20;;
66402;SDS011;53212;52.112;5.144;2024-02-16T06:54:23;4.20;;;3.00;;
66402;SDS011;53212;52.112;5.144;2024-02-16T06:56:51;6.30;;;3.10;;
66402;SDS011;53212;52.112;5.144;2024-02-16T06:59:17;5.80;;;2.90;;
66402;SDS011;53212;52.112;5.144;2024-02-16T07:01:43;5.30;;;3.00;;
66402;SDS011;53212;52.112;5.144;2024-02-16T07:04:09;3.80;;;3.10;;
66402;SDS011;53212;52.112;5.144;2024-02-16T07:06:35;6.30;;;3.40;;
66402;SDS011;53212;52.112;5.144;2024-02-16T07:09:01;5.10;;;3.20;;
66402;SDS011;53212;52.112;5.144;2024-02-16T07:11:27;3.80;;;3.20;;
66402;SDS011;53212;52.112;5.144;2024-02-16T07:13:53;4.90;;;3.30;;
66402;SDS011;53212;52.112;5.144;2024-02-16T07:16:19;4.50;;;3.20;;
66402;SDS011;53212;52.112;5.144;2024-02-16T07:18:45;5.60;;;3.20;;
66402;SDS011;53212;52.112;5.144;2024-02-16T07:21:10;4.90;;;3.30;;
66402;SDS011;53212;52.112;5.144;2024-02-16T07:23:36;5.80;;;3.30;;
66402;SDS011;53212;52.112;5.144;2024-02-16T07:26:03;6.30;;;3.30;;
66402;SDS011;53212;52.112;5.144;2024-02-16T07:28:29;4.40;;;3.50;;
66402;SDS011;53212;52.112;5.144;2024-02-16T07:30:56;4.40;;;3.30;;
66402;SDS011;53212;52.112;5.144;2024-02-16T07:33:21;6.70;;;3.90;;
66402;SDS011;53212;52.112;5.144;2024-02-16T07:35:49;8.50;;;3.20;;
66402;SDS011;53212;52.112;5.144;2024-02-16T07:38:17;6.20;;;3.30;;
66402;SDS011;53212;52.112;5.144;2024-02-16T07:40:42;7.30;;;3.40;;
66402;SDS011;53212;52.112;5.144;2024-02-16T07:43:10;5.10;;;3.40;;
66402;SDS011;53212;52.112;5.144;2024-02-16T07:45:36;5.30;;;3.50;;
66402;SDS011;53212;52.112;5.144;2024-02-16T07:48:01;5.40;;;3.80;;
66402;SDS011;53212;52.112;5.144;2024-02-16T07:50:30;4.40;;;3.60;;
66402;SDS011;53212;52.112;5.144;2024-02-16T07:52:56;6.70;;;3.60;;
66402;SDS011;53212;52.112;5.144;2024-02-16T07:55:21;5.60;;;3.40;;
66402;SDS011;53212;52.112;5.144;2024-02-16T07:57:52;6.10;;;3.60;;
66402;SDS011;53212;52.112;5.144;2024-02-16T08:00:18;9.10;;;4.10;;
66402;SDS011;53212;52.112;5.144;2024-02-16T08:02:44;5.20;;;3.50;;
66402;SDS011;53212;52.112;5.144;2024-02-16T08:05:11;7.00;;;3.60;;
66402;SDS011;53212;52.112;5.144;2024-02-16T08:07:41;7.10;;;3.60;;
66402;SDS011;53212;52.112;5.144;2024-02-16T08:10:08;5.40;;;3.50;;
66402;SDS011;53212;52.112;5.144;2024-02-16T08:12:34;4.60;;;3.60;;
66402;SDS011;53212;52.112;5.144;2024-02-16T08:15:04;4.50;;;4.10;;
66402;SDS011;53212;52.112;5.144;2024-02-16T08:17:33;6.40;;;3.80;;
66402;SDS011;53212;52.112;5.144;2024-02-16T08:19:59;7.30;;;3.60;;
66402;SDS011;53212;52.112;5.144;2024-02-16T08:22:25;7.10;;;3.30;;
66402;SDS011;53212;52.112;5.144;2024-02-16T08:24:50;5.70;;;3.80;;
66402;SDS011;53212;52.112;5.144;2024-02-16T08:27:17;6.00;;;4.20;;
66402;SDS011;53212;52.112;5.144;2024-02-16T08:29:43;4.80;;;3.90;;
66402;SDS011;53212;52.112;5.144;2024-02-16T08:32:10;5.50;;;3.80;;
66402;SDS011;53212;52.112;5.144;2024-02-16T08:34:37;8.30;;;4.10;;
66402;SDS011;53212;52.112;5.144;2024-02-16T08:37:03;5.50;;;3.70;;
66402;SDS011;53212;52.112;5.144;2024-02-16T08:39:30;4.90;;;3.90;;
66402;SDS011;53212;52.112;5.144;2024-02-16T08:41:57;6.90;;;3.90;;
66402;SDS011;53212;52.112;5.144;2024-02-16T08:44:23;5.60;;;4.00;;
66402;SDS011;53212;52.112;5.144;2024-02-16T08:46:50;12.20;;;3.70;;
66402;SDS011;53212;52.112;5.144;2024-02-16T08:49:16;5.40;;;3.80;;
66402;SDS011;53212;52.112;5.144;2024-02-16T08:51:42;4.80;;;3.70;;
66402;SDS011;53212;52.112;5.144;2024-02-16T08:54:10;6.20;;;3.80;;
66402;SDS011;53212;52.112;5.144;2024-02-16T08:56:35;7.50;;;4.20;;
66402;SDS011;53212;52.112;5.144;2024-02-16T08:59:02;5.60;;;3.70;;
66402;SDS011;53212;52.112;5.144;2024-02-16T09:01:34;10.00;;;4.00;;
66402;SDS011;53212;52.112;5.144;2024-02-16T09:04:03;5.70;;;3.90;;
66402;SDS011;53212;52.112;5.144;2024-02-16T09:06:29;6.80;;;3.90;;
66402;SDS011;53212;52.112;5.144;2024-02-16T09:08:55;6.80;;;4.10;;
66402;SDS011;53212;52.112;5.144;2024-02-16T09:11:22;7.00;;;3.80;;
66402;SDS011;53212;52.112;5.144;2024-02-16T09:13:48;5.70;;;4.30;;
66402;SDS011;53212;52.112;5.144;2024-02-16T09:16:14;4.30;;;3.90;;
66402;SDS011;53212;52.112;5.144;2024-02-16T09:18:40;5.00;;;4.20;;
66402;SDS011;53212;52.112;5.144;2024-02-16T09:21:06;6.10;;;3.90;;
66402;SDS011;53212;52.112;5.144;2024-02-16T09:23:33;7.00;;;4.40;;
66402;SDS011;53212;52.112;5.144;2024-02-16T09:25:59;9.40;;;4.80;;
66402;SDS011;53212;52.112;5.144;2024-02-16T09:28:26;7.10;;;4.20;;
66402;SDS011;53212;52.112;5.144;2024-02-16T09:30:56;8.00;;;4.50;;
66402;SDS011;53212;52.112;5.144;2024-02-16T09:33:22;7.90;;;4.50;;
66402;SDS011;53212;52.112;5.144;2024-02-16T09:35:49;7.60;;;4.10;;
66402;SDS011;53212;52.112;5.144;2024-02-16T09:38:16;5.10;;;4.10;;
66402;SDS011;53212;52.112;5.144;2024-02-16T09:40:43;6.60;;;4.20;;
66402;SDS011;53212;52.112;5.144;2024-02-16T09:43:09;9.70;;;4.40;;
66402;SDS011;53212;52.112;5.144;2024-02-16T09:45:35;6.10;;;4.00;;
66402;SDS011;53212;52.112;5.144;2024-02-16T09:48:02;5.30;;;4.20;;
66402;SDS011;53212;52.112;5.144;2024-02-16T09:50:30;6.30;;;4.50;;
66402;SDS011;53212;52.112;5.144;2024-02-16T09:52:56;7.20;;;4.50;;
66402;SDS011;53212;52.112;5.144;2024-02-16T09:55:22;8.40;;;4.90;;
66402;SDS011;53212;52.112;5.144;2024-02-16T09:58:03;7.40;;;4.50;;
66402;SDS011;53212;52.112;5.144;2024-02-16T10:00:30;5.30;;;4.50;;
66402;SDS011;53212;52.112;5.144;2024-02-16T10:02:55;6.80;;;4.40;;
66402;SDS011;53212;52.112;5.144;2024-02-16T10:05:21;7.20;;;4.50;;
66402;SDS011;53212;52.112;5.144;2024-02-16T10:07:47;5.10;;;4.00;;
66402;SDS011;53212;52.112;5.144;2024-02-16T10:10:39;6.40;;;4.50;;
66402;SDS011;53212;52.112;5.144;2024-02-16T10:13:05;4.70;;;4.20;;
66402;SDS011;53212;52.112;5.144;2024-02-16T10:15:32;7.30;;;5.00;;
66402;SDS011;53212;52.112;5.144;2024-02-16T10:18:01;7.10;;;5.00;;
66402;SDS011;53212;52.112;5.144;2024-02-16T10:20:29;6.10;;;4.70;;
66402;SDS011;53212;52.112;5.144;2024-02-16T10:23:11;8.10;;;5.00;;
66402;SDS011;53212;52.112;5.144;2024-02-16T10:25:40;8.60;;;5.30;;
66402;SDS011;53212;52.112;5.144;2024-02-16T10:28:08;7.60;;;4.90;;
66402;SDS011;53212;52.112;5.144;2024-02-16T10:30:39;9.20;;;6.10;;
66402;SDS011;53212;52.112;5.144;2024-02-16T10:33:09;10.10;;;5.80;;
66402;SDS011;53212;52.112;5.144;2024-02-16T10:35:38;9.20;;;5.50;;
66402;SDS011;53212;52.112;5.144;2024-02-16T10:38:07;8.10;;;6.00;;
66402;SDS011;53212;52.112;5.144;2024-02-16T10:40:40;8.80;;;6.00;;
66402;SDS011;53212;52.112;5.144;2024-02-16T10:43:07;12.60;;;7.90;;
66402;SDS011;53212;52.112;5.144;2024-02-16T10:45:35;12.90;;;8.30;;
66402;SDS011;53212;52.112;5.144;2024-02-16T10:48:03;10.70;;;7.90;;
66402;SDS011;53212;52.112;5.144;2024-02-16T10:50:31;12.60;;;7.40;;
66402;SDS011;53212;52.112;5.144;2024-02-16T10:53:00;11.40;;;7.90;;
66402;SDS011;53212;52.112;5.144;2024-02-16T10:55:39;14.50;;;9.10;;
66402;SDS011;53212;52.112;5.144;2024-02-16T10:58:07;17.30;;;9.40;;
66402;SDS011;53212;52.112;5.144;2024-02-16T11:00:33;15.00;;;9.10;;
66402;SDS011;53212;52.112;5.144;2024-02-16T11:03:02;13.50;;;9.10;;
66402;SDS011;53212;52.112;5.144;2024-02-16T11:05:35;16.70;;;9.10;;
66402;SDS011;53212;52.112;5.144;2024-02-16T11:08:12;15.00;;;9.10;;
66402;SDS011;53212;52.112;5.144;2024-02-16T11:10:39;14.70;;;9.10;;
66402;SDS011;53212;52.112;5.144;2024-02-16T11:13:05;14.20;;;8.80;;
66402;SDS011;53212;52.112;5.144;2024-02-16T11:15:32;15.60;;;9.50;;
66402;SDS011;53212;52.112;5.144;2024-02-16T11:18:03;11.20;;;7.90;;
66402;SDS011;53212;52.112;5.144;2024-02-16T11:20:36;14.00;;;8.60;;
66402;SDS011;53212;52.112;5.144;2024-02-16T11:23:11;12.70;;;8.80;;
66402;SDS011;53212;52.112;5.144;2024-02-16T11:25:37;13.90;;;8.30;;
66402;SDS011;53212;52.112;5.144;2024-02-16T11:28:03;13.90;;;8.70;;
66402;SDS011;53212;52.112;5.144;2024-02-16T11:30:32;13.10;;;8.90;;
66402;SDS011;53212;52.112;5.144;2024-02-16T11:35:25;9.40;;;8.00;;
66402;SDS011;53212;52.112;5.144;2024-02-16T11:37:51;12.90;;;8.30;;
66402;SDS011;53212;52.112;5.144;2024-02-16T11:40:16;10.00;;;7.10;;
66402;SDS011;53212;52.112;5.144;2024-02-16T11:42:44;11.00;;;7.60;;
66402;SDS011;53212;52.112;5.144;2024-02-16T11:45:12;10.30;;;7.00;;
66402;SDS011;53212;52.112;5.144;2024-02-16T11:47:38;11.10;;;7.70;;
66402;SDS011;53212;52.112;5.144;2024-02-16T11:50:08;9.90;;;7.50;;
66402;SDS011;53212;52.112;5.144;2024-02-16T11:52:41;10.80;;;7.00;;
66402;SDS011;53212;52.112;5.144;2024-02-16T11:55:13;11.10;;;7.50;;
66402;SDS011;53212;52.112;5.144;2024-02-16T11:57:40;11.50;;;8.00;;
66402;SDS011;53212;52.112;5.144;2024-02-16T12:00:06;10.10;;;7.70;;
66402;SDS011;53212;52.112;5.144;2024-02-16T12:02:35;9.20;;;7.00;;
66402;SDS011;53212;52.112;5.144;2024-02-16T12:05:02;8.40;;;6.00;;
66402;SDS011;53212;52.112;5.144;2024-02-16T12:07:28;5.20;;;4.50;;
66402;SDS011;53212;52.112;5.144;2024-02-16T12:10:01;4.70;;;4.30;;
66402;SDS011;53212;52.112;5.144;2024-02-16T12:12:31;4.60;;;4.10;;
66402;SDS011;53212;52.112;5.144;2024-02-16T12:14:56;6.20;;;3.90;;
66402;SDS011;53212;52.112;5.144;2024-02-16T12:17:23;5.30;;;3.60;;
66402;SDS011;53212;52.112;5.144;2024-02-16T12:19:50;3.10;;;2.90;;
66402;SDS011;53212;52.112;5.144;2024-02-16T12:22:20;3.00;;;2.80;;
66402;SDS011;53212;52.112;5.144;2024-02-16T12:24:50;3.00;;;2.80;;
66402;SDS011;53212;52.112;5.144;2024-02-16T12:27:16;3.50;;;2.90;;
66402;SDS011;53212;52.112;5.144;2024-02-16T12:29:42;3.20;;;2.90;;
66402;SDS011;53212;52.112;5.144;2024-02-16T12:32:07;2.60;;;2.40;;
66402;SDS011;53212;52.112;5.144;2024-02-16T12:34:36;3.10;;;2.70;;
66402;SDS011;53212;52.112;5.144;2024-02-16T12:37:05;3.10;;;2.50;;
66402;SDS011;53212;52.112;5.144;2024-02-16T12:39:36;2.90;;;2.70;;
66402;SDS011;53212;52.112;5.144;2024-02-16T12:42:02;2.50;;;2.30;;
66402;SDS011;53212;52.112;5.144;2024-02-16T12:44:28;3.60;;;2.60;;
66402;SDS011;53212;52.112;5.144;2024-02-16T12:46:54;2.80;;;2.40;;
66402;SDS011;53212;52.112;5.144;2024-02-16T12:49:19;2.50;;;2.30;;
66402;SDS011;53212;52.112;5.144;2024-02-16T12:51:50;4.20;;;2.40;;
66402;SDS011;53212;52.112;5.144;2024-02-16T12:54:17;2.80;;;2.20;;
66402;SDS011;53212;52.112;5.144;2024-02-16T12:56:47;2.30;;;2.10;;
66402;SDS011;53212;52.112;5.144;2024-02-16T12:59:14;2.60;;;2.40;;
66402;SDS011;53212;52.112;5.144;2024-02-16T13:01:40;1.80;;;1.70;;
66402;SDS011;53212;52.112;5.144;2024-02-16T13:04:07;3.00;;;1.70;;
66402;SDS011;53212;52.112;5.144;2024-02-16T13:06:33;1.80;;;1.70;;
66402;SDS011;53212;52.112;5.144;2024-02-16T13:08:58;2.20;;;2.00;;
66402;SDS011;53212;52.112;5.144;2024-02-16T13:11:24;2.60;;;2.10;;
66402;SDS011;53212;52.112;5.144;2024-02-16T13:13:50;2.70;;;2.10;;
66402;SDS011;53212;52.112;5.144;2024-02-16T13:16:18;5.50;;;2.20;;
66402;SDS011;53212;52.112;5.144;2024-02-16T13:18:43;2.50;;;2.10;;
66402;SDS011;53212;52.112;5.144;2024-02-16T13:21:09;2.20;;;1.80;;
66402;SDS011;53212;52.112;5.144;2024-02-16T13:23:36;3.10;;;1.80;;
66402;SDS011;53212;52.112;5.144;2024-02-16T13:26:02;2.70;;;1.70;;
66402;SDS011;53212;52.112;5.144;2024-02-16T13:28:29;2.00;;;1.80;;
66402;SDS011;53212;52.112;5.144;2024-02-16T13:30:55;2.30;;;2.00;;
66402;SDS011;53212;52.112;5.144;2024-02-16T13:33:21;2.60;;;1.70;;
66402;SDS011;53212;52.112;5.144;2024-02-16T13:35:46;2.20;;;1.70;;
66402;SDS011;53212;52.112;5.144;2024-02-16T13:38:11;3.00;;;2.10;;
66402;SDS011;53212;52.112;5.144;2024-02-16T13:40:39;2.90;;;2.40;;
66402;SDS011;53212;52.112;5.144;2024-02-16T13:43:04;3.60;;;2.70;;
66402;SDS011;53212;52.112;5.144;2024-02-16T13:45:48;3.30;;;3.00;;
66402;SDS011;53212;52.112;5.144;2024-02-16T13:48:18;5.00;;;3.10;;
66402;SDS011;53212;52.112;5.144;2024-02-16T13:50:48;3.70;;;3.40;;
66402;SDS011;53212;52.112;5.144;2024-02-16T13:53:15;3.60;;;3.30;;
66402;SDS011;53212;52.112;5.144;2024-02-16T13:55:44;4.40;;;3.70;;
66402;SDS011;53212;52.112;5.144;2024-02-16T13:58:10;5.40;;;3.80;;
66402;SDS011;53212;52.112;5.144;2024-02-16T14:00:36;3.90;;;3.50;;
66402;SDS011;53212;52.112;5.144;2024-02-16T14:03:06;6.20;;;4.40;;
66402;SDS011;53212;52.112;5.144;2024-02-16T14:05:38;4.60;;;4.20;;
66402;SDS011;53212;52.112;5.144;2024-02-16T14:08:04;5.50;;;4.20;;
66402;SDS011;53212;52.112;5.144;2024-02-16T14:10:31;5.20;;;4.40;;
66402;SDS011;53212;52.112;5.144;2024-02-16T14:12:57;4.30;;;3.60;;
66402;SDS011;53212;52.112;5.144;2024-02-16T14:15:23;4.70;;;4.10;;
66402;SDS011;53212;52.112;5.144;2024-02-16T14:17:49;4.20;;;3.80;;
66402;SDS011;53212;52.112;5.144;2024-02-16T14:20:15;4.70;;;3.60;;
66402;SDS011;53212;52.112;5.144;2024-02-16T14:22:40;4.00;;;3.60;;
66402;SDS011;53212;52.112;5.144;2024-02-16T14:25:06;5.30;;;3.70;;
66402;SDS011;53212;52.112;5.144;2024-02-16T14:27:31;4.30;;;3.30;;
66402;SDS011;53212;52.112;5.144;2024-02-16T14:29:57;5.00;;;3.40;;
66402;SDS011;53212;52.112;5.144;2024-02-16T14:32:23;5.80;;;3.60;;
66402;SDS011;53212;52.112;5.144;2024-02-16T14:34:49;6.50;;;4.20;;
66402;SDS011;53212;52.112;5.144;2024-02-16T14:37:14;5.40;;;4.30;;
66402;SDS011;53212;52.112;5.144;2024-02-16T14:39:39;3.80;;;3.50;;
66402;SDS011;53212;52.112;5.144;2024-02-16T14:42:05;4.70;;;4.20;;
66402;SDS011;53212;52.112;5.144;2024-02-16T14:44:30;5.00;;;4.50;;
66402;SDS011;53212;52.112;5.144;2024-02-16T14:46:56;5.90;;;4.80;;